General Arenales, Argentina
Current Conditions -  °F | °C
As of 11:00 AM on Saturday 25 Oct 2014 (Local Time) from SAAR Reporting Station
Broken Clouds Broken Clouds  
Wind Chill: 82°   Ceiling: 20000
Heat Index: 83°   Visibility: 6mi
Dew Point: 63°   Wind: 6mph
Humidity: 51%   Direction: 70°ENE
Pressure: 29.91"   Gusts: NA
Location:  34.3°S, 61.3°W
Report Text: SAAR 251400Z 07005KT 9999 SCT040 SCT100BKN200 28/17 Q1013
Loading
Personal Weather Stations






























Interactive Weather Map
Tropical Storm Tracking
New forecast layout! Learn more

10-Day Weather Forecast

Advertisements
Track Severe Weather on mobile